Time;durP1;ratioP1;P1;durP2;ratioP2;P2;SDS_P1;SDS_P2;PMS_P1;PMS_P2;Temp;Humidity;BMP_temperature;BMP_pressure;BME280_temperature;BME280_humidity;BME280_pressure;Samples;Min_cycle;Max_cycle;Signal;HPM_P1;HPM_P2
2021/12/18 00:01:21;;;;;;;61.70;21.08;;;;;;;-0.23;100.00;100624.34;4823342;29;20038;-69
2021/12/18 00:03:47;;;;;;;68.60;21.75;;;;;;;-0.09;100.00;100634.88;4823606;29;20105;-68
2021/12/18 00:06:13;;;;;;;61.50;20.60;;;;;;;0.09;100.00;100632.09;4823547;29;20478;-69
2021/12/18 00:08:39;;;;;;;75.60;23.03;;;;;;;0.29;100.00;100640.44;4806991;29;20357;-68
2021/12/18 00:11:06;;;;;;;93.37;25.87;;;;;;;0.54;100.00;100639.78;4823492;29;20048;-68
2021/12/18 00:13:32;;;;;;;94.87;25.73;;;;;;;0.65;100.00;100636.47;4823592;29;20772;-68
2021/12/18 00:15:58;;;;;;;82.27;25.13;;;;;;;0.87;100.00;100634.16;4807191;29;20276;-69
2021/12/18 00:18:24;;;;;;;83.80;25.20;;;;;;;0.97;100.00;100639.66;4823361;29;20034;-69
2021/12/18 00:20:50;;;;;;;90.77;26.37;;;;;;;1.07;100.00;100636.34;4806804;29;20302;-68
2021/12/18 00:23:15;;;;;;;88.10;27.03;;;;;;;1.22;100.00;100641.56;4823545;29;20290;-68
2021/12/18 00:25:42;;;;;;;82.77;25.93;;;;;;;1.30;100.00;100648.00;4823115;29;20619;-68
2021/12/18 00:28:09;;;;;;;82.80;27.07;;;;;;;1.44;100.00;100645.31;4806773;29;20132;-69
2021/12/18 00:30:35;;;;;;;76.13;24.90;;;;;;;1.53;100.00;100643.84;4822951;29;20270;-68
2021/12/18 00:33:02;;;;;;;79.87;24.63;;;;;;;1.57;100.00;100649.75;4823012;29;20756;-69
2021/12/18 00:35:27;;;;;;;66.13;23.40;;;;;;;1.70;100.00;100650.63;4822970;29;20899;-71
2021/12/18 00:37:53;;;;;;;63.00;22.17;;;;;;;1.87;100.00;100660.84;4822840;29;20277;-69
2021/12/18 00:40:23;;;;;;;56.93;20.60;;;;;;;1.85;100.00;100654.03;4806557;29;20117;-70
2021/12/18 00:45:17;;;;;;;57.03;21.17;;;;;;;2.07;100.00;100676.19;4823207;29;20293;-71
2021/12/18 00:47:44;;;;;;;46.93;20.53;;;;;;;2.11;100.00;100697.91;4822515;29;20345;-70
2021/12/18 00:50:15;;;;;;;48.00;19.57;;;;;;;2.08;100.00;100693.66;4822940;29;20274;-70
2021/12/18 00:52:40;;;;;;;42.77;18.23;;;;;;;2.03;100.00;100710.75;4822885;29;20266;-70
2021/12/18 00:55:07;;;;;;;37.53;17.13;;;;;;;2.22;100.00;100718.25;4822887;29;20296;-68
2021/12/18 00:57:32;;;;;;;43.13;17.17;;;;;;;2.36;100.00;100715.53;4822690;29;20076;-71
2021/12/18 01:00:02;;;;;;;40.80;17.27;;;;;;;2.49;100.00;100724.28;4822888;29;20760;-71
2021/12/18 01:02:28;;;;;;;37.50;16.77;;;;;;;2.52;100.00;100722.28;4822580;29;20595;-71
2021/12/18 01:04:55;;;;;;;37.10;16.30;;;;;;;2.48;100.00;100712.03;4806375;29;20752;-71
2021/12/18 01:07:20;;;;;;;37.27;15.93;;;;;;;2.44;100.00;100702.63;4822812;29;20274;-71
2021/12/18 01:10:23;;;;;;;37.40;15.60;;;;;;;2.44;100.00;100698.22;4822673;29;20276;-70
2021/12/18 01:12:52;;;;;;;39.17;16.43;;;;;;;2.44;100.00;100702.63;4822700;29;20030;-70
2021/12/18 01:15:32;;;;;;;38.30;15.60;;;;;;;2.37;100.00;100701.38;4806584;29;20277;-70
2021/12/18 01:23:28;;;;;;;32.10;14.60;;;;;;;2.60;100.00;100697.16;4822367;29;20304;-71
2021/12/18 01:25:54;;;;;;;34.03;16.43;;;;;;;2.52;100.00;100692.41;4822319;29;20276;-70
2021/12/18 01:28:21;;;;;;;34.17;15.80;;;;;;;2.56;100.00;100688.59;4822420;29;20365;-71
2021/12/18 01:30:46;;;;;;;33.70;15.37;;;;;;;2.58;100.00;100689.34;4822303;29;20285;-70
2021/12/18 01:33:12;;;;;;;34.93;16.43;;;;;;;2.51;100.00;100694.22;4822258;29;20270;-71
2021/12/18 01:35:39;;;;;;;31.60;14.20;;;;;;;2.46;100.00;100690.19;4822262;29;20035;-70
2021/12/18 01:38:05;;;;;;;32.13;14.43;;;;;;;2.57;100.00;100687.66;4822438;29;20688;-70
2021/12/18 01:40:31;;;;;;;33.60;14.80;;;;;;;2.47;100.00;100681.31;4822269;29;20352;-69
2021/12/18 01:45:41;;;;;;;33.80;14.83;;;;;;;2.40;100.00;100678.28;4822200;29;20282;-70
2021/12/18 01:53:35;;;;;;;32.27;14.23;;;;;;;2.29;100.00;100675.56;4822026;29;20049;-70
2021/12/18 01:56:02;;;;;;;32.93;14.77;;;;;;;2.37;100.00;100675.00;4822204;29;20807;-71
2021/12/18 01:58:28;;;;;;;31.53;15.07;;;;;;;2.61;100.00;100659.25;4821976;29;20038;-69
2021/12/18 02:00:56;;;;;;;34.07;15.07;;;;;;;2.51;100.00;100653.78;4821952;29;20285;-68
2021/12/18 02:03:22;;;;;;;34.63;15.50;;;;;;;2.52;100.00;100656.31;4822037;29;20112;-69
2021/12/18 02:05:49;;;;;;;31.07;14.93;;;;;;;2.45;100.00;100657.69;4822037;29;20285;-70
2021/12/18 02:08:19;;;;;;;32.57;15.63;;;;;;;2.51;100.00;100653.78;4821995;29;20797;-71
2021/12/18 02:10:48;;;;;;;30.90;14.50;;;;;;;2.48;100.00;100665.41;4822018;29;20301;-70
2021/12/18 02:21:18;;;;;;;32.13;14.37;;;;;;;2.47;100.00;100660.22;4825013;29;20816;-71
2021/12/18 02:23:45;;;;;;;30.97;15.00;;;;;;;2.60;100.00;100649.66;4824873;29;20274;-71
2021/12/18 02:26:11;;;;;;;33.47;15.27;;;;;;;2.60;100.00;100654.91;4808887;29;20294;-71
2021/12/18 02:28:37;;;;;;;32.87;15.17;;;;;;;2.64;100.00;100651.97;4808785;29;20771;-71
2021/12/18 02:31:04;;;;;;;31.43;14.77;;;;;;;2.60;100.00;100645.22;4824895;29;20353;-71
2021/12/18 02:33:29;;;;;;;31.33;14.53;;;;;;;2.56;100.00;100643.72;4824756;29;20286;-71
2021/12/18 02:35:58;;;;;;;30.60;14.57;;;;;;;2.55;100.00;100644.69;4824758;29;20385;-70
2021/12/18 02:38:44;;;;;;;29.80;13.83;;;;;;;2.68;100.00;100639.38;4809050;29;20472;-69
2021/12/18 02:43:41;;;;;;;30.70;14.40;;;;;;;2.59;100.00;100637.41;4824753;29;20274;-69
2021/12/18 02:46:08;;;;;;;31.00;15.07;;;;;;;2.63;100.00;100639.72;4808343;29;20752;-70
2021/12/18 02:48:37;;;;;;;29.47;13.93;;;;;;;2.76;100.00;100637.91;4824515;29;20294;-69
2021/12/18 02:51:05;;;;;;;31.27;15.07;;;;;;;2.72;100.00;100649.63;4824608;29;20277;-70
2021/12/18 02:53:32;;;;;;;29.37;14.43;;;;;;;2.51;100.00;100646.72;4824609;29;20270;-70
2021/12/18 02:56:01;;;;;;;29.60;14.30;;;;;;;2.59;100.00;100648.81;4824658;29;20281;-70
2021/12/18 02:58:27;;;;;;;27.70;13.23;;;;;;;2.68;100.00;100656.06;4824755;29;20277;-70
2021/12/18 03:00:56;;;;;;;28.20;13.30;;;;;;;2.66;100.00;100663.22;4823060;29;20274;-70
2021/12/18 03:03:26;;;;;;;29.13;13.50;;;;;;;2.66;100.00;100663.22;4808373;29;20285;-70
2021/12/18 03:06:21;;;;;;;25.93;13.30;;;;;;;2.41;100.00;100664.16;4824225;29;20648;-70
2021/12/18 03:20:38;;;;;;;25.40;12.63;;;;;;;2.21;100.00;100648.00;4824324;29;20366;-70
2021/12/18 03:23:40;;;;;;;27.30;12.90;;;;;;;2.22;100.00;100652.31;4823944;29;20353;-70
2021/12/18 03:25:34;;;;;;;27.70;12.90;;;;;;;2.32;100.00;100656.84;4819087;29;20289;-70
2021/12/18 03:28:04;;;;;;;28.97;13.80;;;;;;;2.35;100.00;100664.56;4808097;29;20266;-69
2021/12/18 03:30:31;;;;;;;28.40;13.30;;;;;;;2.41;100.00;100658.88;4824098;29;20365;-69
2021/12/18 03:32:56;;;;;;;30.00;14.70;;;;;;;2.32;100.00;100661.28;4823947;29;20656;-69
2021/12/18 03:35:23;;;;;;;27.10;13.63;;;;;;;2.25;100.00;100662.66;4823913;29;20278;-69
2021/12/18 03:37:49;;;;;;;29.10;13.53;;;;;;;2.14;100.00;100651.06;4822533;29;20508;-71
2021/12/18 03:40:18;;;;;;;30.03;13.57;;;;;;;2.14;100.00;100655.50;4823790;29;20278;-70
2021/12/18 03:42:44;;;;;;;30.33;13.87;;;;;;;2.00;100.00;100663.50;4823585;29;20285;-70
2021/12/18 03:45:11;;;;;;;30.60;13.80;;;;;;;1.85;100.00;100659.28;4823629;29;20317;-70
2021/12/18 03:47:37;;;;;;;29.97;13.90;;;;;;;1.92;100.00;100653.50;4823398;29;20278;-69
2021/12/18 03:50:04;;;;;;;32.07;14.97;;;;;;;1.76;100.00;100652.84;4807415;29;20288;-69
2021/12/18 03:52:30;;;;;;;31.73;14.57;;;;;;;1.80;100.00;100647.25;4822717;29;20659;-70
2021/12/18 03:54:56;;;;;;;31.43;15.17;;;;;;;1.69;100.00;100651.56;4823453;29;20273;-70
2021/12/18 03:57:22;;;;;;;32.03;14.83;;;;;;;1.66;100.00;100641.22;4807135;29;20045;-70
2021/12/18 03:59:47;;;;;;;33.50;15.57;;;;;;;1.56;100.00;100635.75;4807296;29;20278;-70
2021/12/18 04:02:13;;;;;;;34.90;15.07;;;;;;;1.48;100.00;100640.69;4823481;29;20061;-70
2021/12/18 04:04:38;;;;;;;34.33;15.67;;;;;;;1.41;100.00;100642.84;4823573;29;20042;-70
2021/12/18 04:07:06;;;;;;;35.77;15.63;;;;;;;1.59;100.00;100643.44;4823542;29;20046;-70
2021/12/18 04:09:33;;;;;;;35.90;15.67;;;;;;;1.50;100.00;100644.03;4823404;29;20098;-70
2021/12/18 04:12:00;;;;;;;30.90;14.90;;;;;;;1.41;100.00;100649.91;4823521;29;20278;-70
2021/12/18 04:14:26;;;;;;;36.37;15.90;;;;;;;1.57;100.00;100645.34;4823619;29;20274;-70
2021/12/18 04:16:51;;;;;;;35.33;15.33;;;;;;;1.73;100.00;100653.06;4792172;29;20766;-69
2021/12/18 04:19:18;;;;;;;32.07;14.60;;;;;;;1.59;100.00;100650.50;4807223;29;20040;-69
2021/12/18 04:21:44;;;;;;;33.97;15.37;;;;;;;1.56;100.00;100648.06;4823327;29;20162;-70
2021/12/18 04:24:10;;;;;;;36.97;16.10;;;;;;;1.59;100.00;100648.72;4807082;29;20360;-70
2021/12/18 04:26:35;;;;;;;35.63;15.93;;;;;;;1.51;100.00;100658.06;4823264;29;20030;-70
2021/12/18 04:29:02;;;;;;;36.63;14.80;;;;;;;1.40;100.00;100650.84;4823507;29;20042;-70
2021/12/18 04:31:28;;;;;;;36.13;15.23;;;;;;;1.36;100.00;100655.50;4823192;29;20066;-70
2021/12/18 04:33:53;;;;;;;34.70;14.13;;;;;;;1.38;100.00;100648.34;4823320;29;20632;-69
2021/12/18 04:36:19;;;;;;;34.97;15.03;;;;;;;1.55;100.00;100641.09;4821955;29;20282;-69
2021/12/18 04:38:45;;;;;;;33.83;14.47;;;;;;;1.56;100.00;100648.06;4806392;29;20042;-70
2021/12/18 04:41:14;;;;;;;34.43;15.30;;;;;;;1.67;100.00;100656.09;4823277;29;20136;-70
2021/12/18 04:43:39;;;;;;;37.23;15.43;;;;;;;1.54;100.00;100663.97;4823212;29;20273;-69
2021/12/18 04:46:05;;;;;;;33.77;15.23;;;;;;;1.55;100.00;100667.44;4823210;29;20285;-69
2021/12/18 04:48:31;;;;;;;31.77;14.90;;;;;;;1.61;100.00;100659.16;4823145;29;20086;-69
2021/12/18 04:50:56;;;;;;;33.07;14.70;;;;;;;1.73;100.00;100659.16;4823150;29;20434;-70
2021/12/18 04:53:23;;;;;;;33.43;14.33;;;;;;;1.65;100.00;100663.25;4822913;29;20450;-69
2021/12/18 04:55:48;;;;;;;33.63;14.30;;;;;;;1.67;100.00;100664.84;4822893;29;20042;-69
2021/12/18 04:58:14;;;;;;;31.77;14.77;;;;;;;1.73;100.00;100663.59;4823105;29;20285;-69
2021/12/18 05:00:46;;;;;;;30.27;14.20;;;;;;;1.67;100.00;100669.28;4823178;29;20518;-71
2021/12/18 05:03:14;;;;;;;32.30;14.67;;;;;;;1.61;100.00;100667.91;4823027;29;20392;-70
2021/12/18 05:05:40;;;;;;;29.07;13.97;;;;;;;1.70;100.00;100664.66;4822719;29;20356;-70
2021/12/18 05:08:06;;;;;;;29.80;13.77;;;;;;;1.78;100.00;100661.50;4822801;29;20285;-63
2021/12/18 05:10:32;;;;;;;31.20;14.73;;;;;;;1.83;100.00;100662.03;4806230;29;20756;-63
2021/12/18 05:12:59;;;;;;;29.10;13.47;;;;;;;1.85;100.00;100675.13;4806311;29;20126;-63
2021/12/18 05:15:25;;;;;;;31.40;13.97;;;;;;;1.83;100.00;100671.72;4822472;29;20305;-62
2021/12/18 05:17:50;;;;;;;27.83;13.30;;;;;;;1.80;100.00;100668.34;4822566;29;20768;-63
2021/12/18 05:20:16;;;;;;;28.67;13.47;;;;;;;1.76;100.00;100681.81;4822402;29;20493;-63
2021/12/18 05:22:42;;;;;;;29.77;13.63;;;;;;;1.75;100.00;100677.50;4822333;29;20077;-63
2021/12/18 05:25:08;;;;;;;29.10;13.80;;;;;;;1.63;100.00;100673.03;4822430;29;20102;-63
2021/12/18 05:27:37;;;;;;;32.10;13.70;;;;;;;1.58;100.00;100676.00;4806207;29;20129;-65
2021/12/18 05:30:06;;;;;;;30.37;12.93;;;;;;;1.44;100.00;100681.34;4822577;29;20492;-64
2021/12/18 05:32:32;;;;;;;29.03;13.27;;;;;;;1.50;100.00;100678.28;4822592;29;20281;-64
2021/12/18 05:34:57;;;;;;;31.77;14.30;;;;;;;1.43;100.00;100671.75;4805880;29;20904;-64
2021/12/18 05:39:51;;;;;;;30.23;14.13;;;;;;;1.44;100.00;100686.59;4822526;29;20121;-64
2021/12/18 05:42:18;;;;;;;25.13;13.17;;;;;;;1.34;100.00;100693.41;4822111;29;20321;-64
2021/12/18 05:44:44;;;;;;;28.27;12.63;;;;;;;1.38;100.00;100693.13;4822148;29;20049;-64
2021/12/18 05:47:11;;;;;;;30.00;12.97;;;;;;;1.33;100.00;100689.94;4822205;29;20273;-64
2021/12/18 05:49:37;;;;;;;27.67;13.33;;;;;;;1.08;100.00;100692.47;4822067;29;20330;-64
2021/12/18 05:52:04;;;;;;;27.73;12.87;;;;;;;1.03;100.00;100691.94;4824239;29;20617;-64
2021/12/18 05:54:34;;;;;;;28.10;13.67;;;;;;;0.89;100.00;100691.94;4809189;29;20645;-64
2021/12/18 05:57:00;;;;;;;30.40;13.33;;;;;;;0.78;100.00;100689.16;4825355;29;20334;-64
2021/12/18 05:59:26;;;;;;;32.83;14.30;;;;;;;0.66;100.00;100688.97;4825534;29;20274;-64
2021/12/18 06:01:51;;;;;;;33.73;15.33;;;;;;;0.66;100.00;100686.34;4825204;29;20294;-63
2021/12/18 06:04:17;;;;;;;33.93;14.00;;;;;;;0.51;100.00;100689.06;4825776;29;20062;-64
2021/12/18 06:06:43;;;;;;;31.47;13.80;;;;;;;0.22;100.00;100698.75;4809113;29;20091;-64
2021/12/18 06:09:10;;;;;;;32.03;13.53;;;;;;;0.17;100.00;100693.75;4825428;29;20030;-64
2021/12/18 06:11:38;;;;;;;33.25;14.35;;;;;;;0.11;100.00;100703.81;4825253;29;20034;-64
2021/12/18 06:14:05;;;;;;;34.90;14.55;;;;;;;0.12;100.00;100701.06;4825230;29;20137;-64
2021/12/18 06:16:32;;;;;;;33.90;13.90;;;;;;;-0.08;100.00;100701.41;4825187;29;20030;-64
2021/12/18 06:18:57;;;;;;;37.33;14.95;;;;;;;0.07;100.00;100697.03;4825008;29;20038;-64
2021/12/18 06:21:23;;;;;;;38.17;15.50;;;;;;;0.28;100.00;100695.75;4825035;29;20141;-64
2021/12/18 06:23:51;;;;;;;38.07;15.27;;;;;;;0.40;100.00;100700.25;4808807;29;20034;-64
2021/12/18 06:26:17;;;;;;;36.10;14.98;;;;;;;0.29;100.00;100706.16;4824962;29;20548;-64
2021/12/18 06:28:43;;;;;;;33.53;14.48;;;;;;;0.13;100.00;100710.66;4808600;29;20046;-64
2021/12/18 06:31:08;;;;;;;34.53;14.97;;;;;;;0.07;100.00;100702.31;4824971;29;20488;-64
2021/12/18 06:33:34;;;;;;;38.17;15.30;;;;;;;-0.01;100.00;100705.41;4824892;29;20113;-64
2021/12/18 06:36:00;;;;;;;38.80;15.73;;;;;;;-0.04;100.00;100714.31;4824720;29;20034;-64
2021/12/18 06:38:26;;;;;;;39.27;15.87;;;;;;;-0.09;100.00;100704.97;4808579;29;20041;-65
2021/12/18 06:40:52;;;;;;;33.75;14.98;;;;;;;-0.18;100.00;100702.91;4824744;29;20039;-64
2021/12/18 06:43:17;;;;;;;33.97;14.70;;;;;;;-0.22;100.00;100710.09;4824568;29;20557;-64
2021/12/18 06:45:43;;;;;;;40.23;15.07;;;;;;;-0.13;100.00;100706.97;4824903;29;20030;-64
2021/12/18 06:48:08;;;;;;;38.77;14.83;;;;;;;-0.10;100.00;100705.91;4824625;29;20564;-64
2021/12/18 06:50:35;;;;;;;39.40;15.47;;;;;;;-0.22;100.00;100690.88;4824505;29;20034;-64
2021/12/18 06:53:01;;;;;;;47.13;17.05;;;;;;;-0.15;100.00;100706.19;4824545;29;20098;-64
2021/12/18 06:55:28;;;;;;;40.20;16.30;;;;;;;-0.16;100.00;100704.50;4824566;29;20038;-64
2021/12/18 06:57:54;;;;;;;44.83;17.98;;;;;;;-0.12;100.00;100698.16;4824304;29;20034;-64
2021/12/18 07:00:21;;;;;;;41.67;16.10;;;;;;;-0.03;100.00;100699.38;4824391;29;20034;-64
2021/12/18 07:02:47;;;;;;;39.67;16.02;;;;;;;-0.05;100.00;100712.59;4824008;29;20091;-64
2021/12/18 07:05:14;;;;;;;38.40;15.52;;;;;;;0.00;100.00;100714.97;4824350;29;20077;-64
2021/12/18 07:07:39;;;;;;;43.15;17.27;;;;;;;0.09;100.00;100713.56;4824476;29;20117;-64
2021/12/18 07:10:07;;;;;;;45.33;17.80;;;;;;;0.16;100.00;100722.78;4823071;29;20579;-65
2021/12/18 07:12:34;;;;;;;38.60;15.73;;;;;;;0.11;100.00;100714.34;4824510;29;20131;-64
2021/12/18 07:15:00;;;;;;;39.38;16.42;;;;;;;0.12;100.00;100722.09;4824130;29;20038;-64
2021/12/18 07:17:25;;;;;;;40.93;16.17;;;;;;;0.13;100.00;100726.41;4824284;29;20098;-64
2021/12/18 07:19:51;;;;;;;40.93;16.43;;;;;;;0.16;100.00;100725.41;4824124;29;20042;-64
2021/12/18 07:22:16;;;;;;;44.43;16.30;;;;;;;0.18;100.00;100716.50;4823940;29;20035;-64
2021/12/18 07:24:42;;;;;;;43.30;17.20;;;;;;;0.20;100.00;100716.41;4823870;29;20042;-65
2021/12/18 07:27:08;;;;;;;41.50;16.57;;;;;;;0.20;100.00;100712.00;4824137;29;20034;-64
2021/12/18 07:29:33;;;;;;;39.83;15.53;;;;;;;0.14;100.00;100707.09;4823788;29;20601;-64
2021/12/18 07:31:59;;;;;;;41.10;16.97;;;;;;;0.18;100.00;100718.28;4823817;29;20541;-64
2021/12/18 07:34:25;;;;;;;41.13;16.37;;;;;;;0.25;100.00;100714.31;4823727;29;20058;-64
2021/12/18 07:36:50;;;;;;;39.17;16.40;;;;;;;0.27;100.00;100712.44;4823851;29;20109;-64
2021/12/18 07:39:16;;;;;;;38.07;15.87;;;;;;;0.28;100.00;100707.09;4823886;29;20034;-63
2021/12/18 07:41:42;;;;;;;43.57;16.67;;;;;;;0.34;100.00;100701.50;4807509;29;20062;-64
2021/12/18 07:44:08;;;;;;;39.47;16.33;;;;;;;0.44;100.00;100700.94;4823788;29;20744;-64
2021/12/18 07:46:38;;;;;;;39.97;16.73;;;;;;;0.50;100.00;100701.38;4807453;29;20054;-64
2021/12/18 07:49:05;;;;;;;35.78;15.63;;;;;;;0.51;100.00;100702.22;4801139;29;20418;-64
2021/12/18 07:51:32;;;;;;;37.10;15.20;;;;;;;0.58;100.00;100704.38;4787533;29;20461;-64
2021/12/18 07:53:58;;;;;;;34.60;14.73;;;;;;;0.59;100.00;100705.22;4786345;30;20114;-65
2021/12/18 07:56:24;;;;;;;36.60;16.03;;;;;;;0.65;100.00;100705.69;4787236;29;20131;-64
2021/12/18 07:58:51;;;;;;;32.33;14.40;;;;;;;0.69;100.00;100698.47;4787139;30;20038;-68
2021/12/18 08:01:17;;;;;;;35.10;16.00;;;;;;;0.76;100.00;100691.88;4800796;29;20278;-67
2021/12/18 08:03:43;;;;;;;35.10;15.43;;;;;;;0.80;100.00;100706.53;4787036;29;20094;-69
2021/12/18 08:06:09;;;;;;;45.03;17.17;;;;;;;0.88;100.00;100709.53;4801045;29;20038;-68
2021/12/18 08:08:34;;;;;;;36.93;16.47;;;;;;;1.05;100.00;100705.81;4785800;29;20405;-74
2021/12/18 08:11:00;;;;;;;36.40;16.30;;;;;;;1.15;100.00;100714.00;4791774;29;20035;-73
2021/12/18 08:13:26;;;;;;;34.73;16.23;;;;;;;1.21;100.00;100710.94;4797539;29;20117;-69
2021/12/18 08:15:51;;;;;;;35.77;16.63;;;;;;;1.24;100.00;100711.59;4804651;29;20500;-67
2021/12/18 08:18:17;;;;;;;36.00;15.67;;;;;;;1.21;100.00;100708.31;4804780;29;20105;-67
2021/12/18 08:20:43;;;;;;;35.60;16.43;;;;;;;1.23;100.00;100711.69;4803515;29;20568;-68
2021/12/18 08:23:09;;;;;;;34.87;16.23;;;;;;;1.21;100.00;100718.84;4803605;29;20485;-68
2021/12/18 08:25:35;;;;;;;31.03;14.53;;;;;;;1.15;100.00;100717.47;4803459;29;20335;-67
2021/12/18 08:28:02;;;;;;;34.00;15.63;;;;;;;1.32;100.00;100711.94;4803353;29;20034;-66
2021/12/18 08:30:29;;;;;;;37.40;16.07;;;;;;;1.30;100.00;100711.19;4804478;29;20271;-67
2021/12/18 08:32:55;;;;;;;29.57;15.13;;;;;;;1.37;100.00;100715.13;4804521;29;20270;-69
2021/12/18 08:35:22;;;;;;;31.37;14.90;;;;;;;1.39;100.00;100712.38;4803263;29;20281;-68
2021/12/18 08:37:47;;;;;;;33.60;15.67;;;;;;;2.73;100.00;100713.81;4804333;29;20270;-68
2021/12/18 08:40:13;;;;;;;28.60;14.30;;;;;;;3.76;100.00;100710.69;4804587;29;20369;-68
2021/12/18 08:42:39;;;;;;;22.70;12.70;;;;;;;4.26;100.00;100713.00;4804769;29;20119;-69
2021/12/18 08:45:06;;;;;;;22.90;12.47;;;;;;;4.95;100.00;100713.72;4804496;29;20757;-68
2021/12/18 08:47:31;;;;;;;21.67;12.37;;;;;;;4.90;100.00;100717.69;4806139;29;20042;-70
2021/12/18 08:49:57;;;;;;;19.33;10.83;;;;;;;4.98;100.00;100717.91;4841144;29;20265;-72
2021/12/18 08:52:23;;;;;;;23.17;12.17;;;;;;;5.59;100.00;100718.28;4841104;29;20028;-72
2021/12/18 08:54:48;;;;;;;20.03;11.47;;;;;;;6.43;100.00;100723.53;4840797;29;20046;-66
2021/12/18 08:57:14;;;;;;;20.30;11.30;;;;;;;5.23;100.00;100716.81;4824335;29;20107;-66
2021/12/18 08:59:40;;;;;;;23.73;13.10;;;;;;;4.43;100.00;100718.78;4840794;29;20042;-66
2021/12/18 09:02:09;;;;;;;22.50;13.00;;;;;;;3.75;100.00;100719.56;4840565;29;20090;-69
2021/12/18 09:04:36;;;;;;;23.57;12.77;;;;;;;3.62;100.00;100712.53;4840485;29;20040;-67
2021/12/18 09:07:03;;;;;;;22.13;12.47;;;;;;;3.75;100.00;100715.13;4824489;29;20755;-67
2021/12/18 09:09:28;;;;;;;22.93;12.27;;;;;;;4.73;100.00;100711.06;4840646;29;20277;-67
2021/12/18 09:11:54;;;;;;;21.03;12.10;;;;;;;5.46;100.00;100707.81;4840555;29;20261;-65
2021/12/18 09:14:19;;;;;;;21.57;11.77;;;;;;;5.85;100.00;100694.91;4840731;29;20429;-66
2021/12/18 09:16:45;;;;;;;20.57;11.60;;;;;;;6.30;100.00;100695.50;4840480;29;20026;-66
2021/12/18 09:19:11;;;;;;;21.20;11.60;;;;;;;6.58;100.00;100693.97;4809028;29;20026;-67
2021/12/18 09:21:36;;;;;;;20.33;11.60;;;;;;;6.63;100.00;100695.25;4840263;29;20026;-71
2021/12/18 09:24:03;;;;;;;19.50;11.30;;;;;;;6.87;100.00;100697.59;4824949;29;20060;-70
2021/12/18 09:26:28;;;;;;;18.60;10.90;;;;;;;6.98;100.00;100692.16;4844375;29;20520;-66
2021/12/18 09:28:54;;;;;;;17.77;10.10;;;;;;;5.43;100.00;100694.81;4844018;29;20116;-66
2021/12/18 09:31:20;;;;;;;17.47;9.97;;;;;;;6.02;100.00;100691.69;4827707;29;20112;-70
2021/12/18 09:33:46;;;;;;;18.30;10.00;;;;;;;6.13;100.00;100696.94;4839473;29;20361;-65
2021/12/18 09:36:11;;;;;;;17.53;9.83;;;;;;;5.94;100.00;100687.03;4791315;29;20043;-66
2021/12/18 09:38:37;;;;;;;16.80;10.43;;;;;;;5.31;100.00;100693.16;4821625;29;20027;-67
2021/12/18 09:41:03;;;;;;;14.50;9.53;;;;;;;5.81;100.00;100692.50;4825364;29;20408;-66
2021/12/18 09:43:29;;;;;;;15.73;8.83;;;;;;;4.44;100.00;100689.53;4825205;29;20061;-66
2021/12/18 09:46:04;;;;;;;17.03;10.00;;;;;;;4.80;100.00;100685.81;4825150;29;20310;-66
2021/12/18 09:48:31;;;;;;;17.07;9.70;;;;;;;4.71;100.00;100695.34;4805922;29;20051;-66
2021/12/18 09:50:59;;;;;;;17.77;9.57;;;;;;;3.94;100.00;100691.63;4805955;29;20301;-66
2021/12/18 09:53:25;;;;;;;14.10;8.47;;;;;;;3.86;100.00;100690.53;4807142;29;20327;-66
2021/12/18 09:55:51;;;;;;;16.43;9.07;;;;;;;3.99;100.00;100686.84;4805909;29;20297;-66
2021/12/18 09:58:16;;;;;;;15.33;8.47;;;;;;;3.55;100.00;100686.69;4805905;29;20279;-67
2021/12/18 10:00:42;;;;;;;14.77;7.90;;;;;;;3.55;100.00;100690.19;4807335;29;20046;-67
2021/12/18 10:03:08;;;;;;;12.73;7.27;;;;;;;3.50;100.00;100691.47;4806914;29;20107;-66
2021/12/18 10:05:35;;;;;;;13.10;7.57;;;;;;;3.51;100.00;100687.88;4805601;29;20117;-67
2021/12/18 10:08:12;;;;;;;12.57;7.60;;;;;;;3.42;100.00;100686.75;4806950;29;20031;-67
2021/12/18 10:11:07;;;;;;;27.27;20.53;;;;;;;3.79;100.00;100679.56;4805813;29;20678;-67
2021/12/18 10:13:56;;;;;;;23.00;15.30;;;;;;;3.62;100.00;100685.28;4805522;29;20788;-67
2021/12/18 10:16:22;;;;;;;16.80;9.50;;;;;;;3.96;100.00;100673.00;4806796;29;20274;-67
2021/12/18 10:18:51;;;;;;;14.23;8.00;;;;;;;3.97;100.00;100672.03;4806709;29;20385;-68
2021/12/18 10:21:23;;;;;;;14.97;7.87;;;;;;;3.74;100.00;100665.84;4805429;29;20279;-67
2021/12/18 10:23:54;;;;;;;15.77;8.20;;;;;;;3.81;100.00;100667.06;4806642;29;20361;-67
2021/12/18 10:26:34;;;;;;;16.73;8.43;;;;;;;4.37;100.00;100664.53;4805491;29;20282;-67
2021/12/18 10:29:01;;;;;;;13.50;7.63;;;;;;;4.13;100.00;100666.44;4806642;29;20275;-67
2021/12/18 10:32:02;;;;;;;13.83;7.70;;;;;;;3.97;100.00;100672.03;4804944;29;20867;-67
2021/12/18 10:34:28;;;;;;;14.13;8.00;;;;;;;3.73;100.00;100669.44;4801922;29;20287;-67
2021/12/18 10:37:12;;;;;;;15.17;8.37;;;;;;;4.07;100.00;100662.44;4804574;29;20705;-68
2021/12/18 10:39:50;;;;;;;14.48;7.57;;;;;;;4.11;100.00;100649.81;4806503;29;20031;-67
2021/12/18 10:42:33;;;;;;;14.50;8.50;;;;;;;4.37;100.00;100653.94;4806444;29;20034;-67
2021/12/18 10:45:05;;;;;;;16.20;8.30;;;;;;;4.34;100.00;100652.38;4805231;29;20279;-67
2021/12/18 10:47:56;;;;;;;14.30;8.00;;;;;;;3.90;100.00;100639.09;4807546;29;20354;-67
2021/12/18 10:50:27;;;;;;;17.43;9.33;;;;;;;4.26;100.00;100630.97;4824477;29;20346;-67
2021/12/18 10:53:01;;;;;;;17.53;9.27;;;;;;;4.43;100.00;100621.69;4823106;29;20274;-67
2021/12/18 10:55:54;;;;;;;15.53;8.70;;;;;;;4.34;100.00;100622.41;4823072;29;20289;-66
2021/12/18 10:58:25;;;;;;;20.27;10.30;;;;;;;4.27;100.00;100607.97;4824129;29;20278;-67
2021/12/18 11:00:59;;;;;;;17.40;9.70;;;;;;;3.65;100.00;100618.97;4824171;29;20289;-66
2021/12/18 11:03:29;;;;;;;17.00;9.87;;;;;;;3.87;100.00;100607.59;4822551;29;20301;-67
2021/12/18 11:06:14;;;;;;;15.80;9.30;;;;;;;3.85;100.00;100602.41;4823983;29;20339;-66
2021/12/18 11:08:59;;;;;;;17.47;9.63;;;;;;;3.81;100.00;100597.47;4828897;29;20250;-66
2021/12/18 11:14:12;;;;;;;17.07;9.87;;;;;;;4.10;100.00;100597.88;4827028;29;20270;-65
2021/12/18 11:16:39;;;;;;;16.17;9.20;;;;;;;4.24;100.00;100600.28;4842182;29;20281;-67
2021/12/18 11:19:13;;;;;;;15.93;9.57;;;;;;;3.77;100.00;100599.53;4842333;29;20304;-67
2021/12/18 11:21:43;;;;;;;;;;;;;;;3.74;100.00;100591.81;4842619;29;20693;-68
2021/12/18 11:24:09;;;;;;;19.43;10.00;;;;;;;3.86;100.00;100592.69;4842132;29;19958;-67
2021/12/18 11:26:49;;;;;;;19.10;10.90;;;;;;;3.70;100.00;100592.16;4835718;29;20285;-66
2021/12/18 11:29:44;;;;;;;18.67;10.50;;;;;;;3.74;100.00;100586.53;4825229;29;20279;-68
2021/12/18 11:32:11;;;;;;;;;;;;;;;3.76;100.00;100587.25;4842277;29;20284;-70
2021/12/18 11:34:38;;;;;;;21.50;11.03;;;;;;;3.80;100.00;100572.00;4842481;29;20274;-66
2021/12/18 11:37:09;;;;;;;18.77;11.13;;;;;;;3.85;100.00;100577.78;4842725;29;20685;-66
2021/12/18 11:39:35;;;;;;;21.17;11.57;;;;;;;3.74;100.00;100569.81;4823769;29;20277;-65
2021/12/18 11:42:01;;;;;;;21.60;11.57;;;;;;;3.80;100.00;100574.66;4822803;29;20297;-69
2021/12/18 11:44:30;;;;;;;20.90;12.23;;;;;;;3.79;100.00;100567.69;4822152;29;20293;-68
2021/12/18 11:47:21;;;;;;;22.33;11.80;;;;;;;3.97;100.00;100563.59;4823683;29;20038;-69
2021/12/18 11:49:47;;;;;;;21.90;11.87;;;;;;;3.71;100.00;100570.91;4823508;29;20381;-68
2021/12/18 11:52:12;;;;;;;24.00;12.07;;;;;;;4.02;100.00;100568.53;4822337;29;20353;-67
2021/12/18 11:54:50;;;;;;;22.30;11.73;;;;;;;3.54;100.00;100560.78;4823525;29;20046;-68
2021/12/18 11:57:37;;;;;;;21.37;11.80;;;;;;;3.48;100.00;100554.16;4824114;29;20057;-71